Time;durP1;ratioP1;P1;durP2;ratioP2;P2;SDS_P1;SDS_P2;PMS_P1;PMS_P2;Temp;Humidity;BMP_temperature;BMP_pressure;BME280_temperature;BME280_humidity;BME280_pressure;Samples;Min_cycle;Max_cycle;Signal;HPM_P1;HPM_P2
2022/04/06 00:01:09;;;;;;;28.08;16.63;;;26.10;99.90;;;;;;5075393;28;20020;-67
2022/04/06 00:03:36;;;;;;;23.90;17.05;;;26.10;99.90;;;;;;5075541;28;20026;-66
2022/04/06 00:06:03;;;;;;;21.67;15.50;;;26.10;99.90;;;;;;5075305;28;20104;-68
2022/04/06 00:08:29;;;;;;;20.70;14.40;;;26.20;99.90;;;;;;5074741;28;20025;-69
2022/04/06 00:10:57;;;;;;;24.45;14.23;;;26.20;99.90;;;;;;5074748;28;20116;-69
2022/04/06 00:13:23;;;;;;;17.00;12.70;;;26.20;99.90;;;;;;5075378;28;20082;-73
2022/04/06 00:15:50;;;;;;;22.45;15.23;;;26.20;99.90;;;;;;5075522;28;20021;-70
2022/04/06 00:18:17;;;;;;;24.27;15.73;;;26.30;99.90;;;;;;5074890;28;20025;-70
2022/04/06 00:20:43;;;;;;;25.48;17.08;;;26.30;99.90;;;;;;5074783;28;20025;-70
2022/04/06 00:23:10;;;;;;;28.38;15.70;;;26.30;99.90;;;;;;5074945;28;20487;-73
2022/04/06 00:25:37;;;;;;;31.38;18.58;;;26.30;99.90;;;;;;5074566;28;20047;-69
2022/04/06 00:28:03;;;;;;;23.45;16.13;;;26.40;99.90;;;;;;5074771;28;20020;-70
2022/04/06 00:30:30;;;;;;;29.40;17.88;;;26.40;99.90;;;;;;5074241;28;20020;-72
2022/04/06 00:32:57;;;;;;;29.35;17.90;;;26.40;99.90;;;;;;5074527;28;20022;-70
2022/04/06 00:35:32;;;;;;;28.20;18.60;;;26.50;99.90;;;;;;5074844;28;20036;-68
2022/04/06 00:38:01;;;;;;;30.52;19.05;;;26.50;99.90;;;;;;5074463;28;20103;-70
2022/04/06 00:40:27;;;;;;;25.77;17.25;;;26.60;99.90;;;;;;5074029;28;20027;-69
2022/04/06 00:42:54;;;;;;;45.00;26.52;;;26.60;99.90;;;;;;5074228;28;20020;-69
2022/04/06 00:45:22;;;;;;;35.03;20.58;;;26.70;99.90;;;;;;5074357;28;20024;-70
2022/04/06 00:47:50;;;;;;;40.85;22.98;;;26.70;99.90;;;;;;5074289;28;20024;-70
2022/04/06 00:50:18;;;;;;;36.47;24.17;;;26.90;99.90;;;;;;5074363;28;20032;-71
2022/04/06 00:52:45;;;;;;;34.72;21.50;;;27.00;99.90;;;;;;5074209;28;20024;-67
2022/04/06 00:55:13;;;;;;;34.10;19.13;;;27.10;99.90;;;;;;5074053;28;20020;-68
2022/04/06 00:57:39;;;;;;;35.83;20.75;;;27.20;99.90;;;;;;5073778;28;20024;-69
2022/04/06 01:00:08;;;;;;;41.95;25.55;;;27.40;99.90;;;;;;5073726;28;20060;-66
2022/04/06 01:02:35;;;;;;;30.58;19.73;;;27.40;99.90;;;;;;5070648;28;20103;-66
2022/04/06 01:05:02;;;;;;;30.27;19.25;;;27.50;99.90;;;;;;5069030;28;20052;-66
2022/04/06 01:07:30;;;;;;;27.95;18.35;;;27.60;99.90;;;;;;5074264;28;20036;-66
2022/04/06 01:09:57;;;;;;;28.80;17.92;;;27.60;99.90;;;;;;5073850;28;20056;-69
2022/04/06 01:12:26;;;;;;;23.13;15.75;;;27.70;99.90;;;;;;5073722;28;20497;-67
2022/04/06 01:14:54;;;;;;;25.15;16.20;;;27.70;99.90;;;;;;5089365;28;20032;-66
2022/04/06 01:17:21;;;;;;;16.27;11.80;;;27.70;99.90;;;;;;5094107;28;20532;-66
2022/04/06 01:19:48;;;;;;;17.13;11.60;;;27.70;99.90;;;;;;5094280;28;20024;-68
2022/04/06 01:22:17;;;;;;;18.38;12.20;;;27.70;99.90;;;;;;5079375;28;20035;-65
2022/04/06 01:24:45;;;;;;;21.08;12.10;;;27.70;99.90;;;;;;5073466;28;20078;-69
2022/04/06 01:27:13;;;;;;;15.20;11.32;;;27.70;99.90;;;;;;5073561;28;20020;-66
2022/04/06 01:29:41;;;;;;;18.33;11.77;;;27.70;99.90;;;;;;5072629;28;20075;-66
2022/04/06 01:32:10;;;;;;;18.52;11.63;;;27.70;99.90;;;;;;5072806;28;20025;-66
2022/04/06 01:34:38;;;;;;;20.67;12.88;;;27.70;99.90;;;;;;5073776;28;20036;-66
2022/04/06 01:37:06;;;;;;;21.10;11.70;;;27.80;99.90;;;;;;5072930;28;20028;-66
2022/04/06 01:39:34;;;;;;;22.38;12.27;;;27.80;99.90;;;;;;5073178;28;20415;-69
2022/04/06 01:42:01;;;;;;;18.88;13.57;;;27.80;99.90;;;;;;5073397;28;20032;-71
2022/04/06 01:44:29;;;;;;;17.30;12.70;;;27.90;99.90;;;;;;5073465;28;20483;-68
2022/04/06 01:46:56;;;;;;;18.98;12.45;;;28.00;99.90;;;;;;5073105;28;20036;-69
2022/04/06 01:52:18;;;;;;;21.30;15.00;;;28.10;99.90;;;;;;5073470;28;20476;-67
2022/04/06 01:54:46;;;;;;;22.48;14.05;;;28.20;99.90;;;;;;5073332;28;20103;-67
2022/04/06 01:57:13;;;;;;;23.00;14.23;;;28.20;99.90;;;;;;5069757;28;20038;-72
2022/04/06 01:59:41;;;;;;;21.48;16.88;;;28.30;99.90;;;;;;5073031;28;20063;-71
2022/04/06 02:02:09;;;;;;;25.38;14.43;;;28.30;99.90;;;;;;5073010;28;20025;-68
2022/04/06 02:04:37;;;;;;;17.92;14.70;;;28.60;99.90;;;;;;5072325;28;20032;-68
2022/04/06 02:07:05;;;;;;;23.00;15.68;;;28.60;99.90;;;;;;5072608;28;20020;-68
2022/04/06 02:09:32;;;;;;;21.95;15.43;;;28.60;99.90;;;;;;5072406;28;20036;-67
2022/04/06 02:12:00;;;;;;;24.35;16.73;;;28.80;99.90;;;;;;5073044;28;20024;-66
2022/04/06 02:14:27;;;;;;;19.45;15.15;;;28.80;99.90;;;;;;5072453;28;20074;-67
2022/04/06 02:16:54;;;;;;;23.92;15.52;;;28.80;99.90;;;;;;5072887;28;20132;-70
2022/04/06 02:19:21;;;;;;;18.42;14.43;;;28.80;99.90;;;;;;5075324;28;20024;-67
2022/04/06 02:21:48;;;;;;;22.05;15.52;;;28.80;99.90;;;;;;5077149;28;20027;-67
2022/04/06 02:24:14;;;;;;;28.65;16.52;;;29.00;99.90;;;;;;5077113;28;20067;-67
2022/04/06 02:26:41;;;;;;;38.95;17.40;;;29.00;99.90;;;;;;5076921;28;20085;-66
2022/04/06 02:29:08;;;;;;;39.28;16.40;;;29.00;99.90;;;;;;5052391;28;20498;-67
2022/04/06 02:31:34;;;;;;;28.48;15.90;;;29.10;99.90;;;;;;5073927;28;20070;-66
2022/04/06 02:34:01;;;;;;;26.73;14.90;;;29.10;99.90;;;;;;5077350;28;20024;-66
2022/04/06 02:36:28;;;;;;;25.52;13.57;;;29.20;99.90;;;;;;5058241;28;20063;-66
2022/04/06 02:38:54;;;;;;;26.17;15.20;;;29.10;99.90;;;;;;5072394;28;20024;-66
2022/04/06 02:41:21;;;;;;;28.73;13.98;;;29.10;99.90;;;;;;5076915;28;20024;-67
2022/04/06 02:43:48;;;;;;;29.17;14.18;;;29.20;99.90;;;;;;5069047;28;20100;-68
2022/04/06 02:46:15;;;;;;;29.23;14.50;;;29.40;99.90;;;;;;5066963;28;20020;-67
2022/04/06 02:48:41;;;;;;;30.70;14.15;;;29.40;99.90;;;;;;5067714;28;20447;-67
2022/04/06 02:51:08;;;;;;;27.20;12.85;;;29.50;99.90;;;;;;5065160;28;20486;-68
2022/04/06 02:53:35;;;;;;;23.17;12.13;;;29.50;99.90;;;;;;5065590;28;20025;-69
2022/04/06 02:56:01;;;;;;;26.63;13.02;;;29.60;99.90;;;;;;5061495;28;20020;-67
2022/04/06 02:58:28;;;;;;;24.77;12.65;;;29.70;99.90;;;;;;5065739;28;20433;-66
2022/04/06 03:00:56;;;;;;;27.25;13.70;;;29.70;99.90;;;;;;5064839;28;20024;-68
2022/04/06 03:03:23;;;;;;;24.45;11.82;;;29.60;99.90;;;;;;5066052;28;20048;-67
2022/04/06 03:05:50;;;;;;;17.70;10.80;;;29.60;99.90;;;;;;5066570;28;20305;-66
2022/04/06 03:08:17;;;;;;;16.27;10.90;;;29.70;99.90;;;;;;5063374;28;20035;-67
2022/04/06 03:10:44;;;;;;;21.33;10.90;;;29.70;99.90;;;;;;5070303;28;20021;-66
2022/04/06 03:13:14;;;;;;;18.30;10.68;;;29.80;99.90;;;;;;5068238;28;20021;-67
2022/04/06 03:15:40;;;;;;;18.20;12.20;;;29.70;99.90;;;;;;5063992;28;20059;-67
2022/04/06 03:18:07;;;;;;;17.98;12.05;;;29.90;99.90;;;;;;5070041;28;20032;-67
2022/04/06 03:20:34;;;;;;;17.02;11.63;;;30.10;99.90;;;;;;5064494;28;20032;-66
2022/04/06 03:23:01;;;;;;;16.13;11.27;;;30.20;99.90;;;;;;5066524;28;20539;-68
2022/04/06 03:25:28;;;;;;;11.82;10.35;;;30.10;99.90;;;;;;5066150;28;20365;-68
2022/04/06 03:27:55;;;;;;;14.02;11.43;;;30.20;99.90;;;;;;5064906;28;20017;-68
2022/04/06 03:30:21;;;;;;;17.85;13.27;;;30.30;99.90;;;;;;5065953;28;20025;-68
2022/04/06 03:32:48;;;;;;;17.20;11.10;;;30.30;99.90;;;;;;5065344;28;20463;-69
2022/04/06 03:35:15;;;;;;;14.68;10.60;;;30.40;99.90;;;;;;5066491;28;20383;-67
2022/04/06 03:37:42;;;;;;;18.08;10.82;;;30.50;99.90;;;;;;5065167;28;20563;-67
2022/04/06 03:40:09;;;;;;;13.43;10.30;;;30.50;99.90;;;;;;5064778;28;20027;-68
2022/04/06 03:42:36;;;;;;;20.20;12.32;;;30.60;99.90;;;;;;5066326;28;20039;-68
2022/04/06 03:45:04;;;;;;;17.52;12.23;;;30.60;99.90;;;;;;5064543;28;20020;-68
2022/04/06 03:47:33;;;;;;;14.23;12.00;;;30.60;99.90;;;;;;5069071;28;20060;-68
2022/04/06 03:50:00;;;;;;;15.40;11.10;;;30.70;99.90;;;;;;5069057;28;20043;-67
2022/04/06 03:52:32;;;;;;;15.40;11.20;;;30.70;99.90;;;;;;5069209;28;20029;-68
2022/04/06 03:54:59;;;;;;;16.30;11.43;;;30.70;99.90;;;;;;5048849;28;20028;-68
2022/04/06 03:57:27;;;;;;;30.52;12.25;;;30.80;99.90;;;;;;5070223;28;20038;-67
2022/04/06 03:59:54;;;;;;;14.05;11.55;;;30.80;98.50;;;;;;5071848;28;20060;-68
2022/04/06 04:02:20;;;;;;;13.85;11.48;;;30.90;98.20;;;;;;5069116;28;20108;-68
2022/04/06 04:04:47;;;;;;;28.13;17.92;;;30.90;98.80;;;;;;5071045;28;20017;-69
2022/04/06 04:07:20;;;;;;;16.55;11.98;;;31.00;98.90;;;;;;5063355;28;20031;-68
2022/04/06 04:09:49;;;;;;;15.68;11.43;;;31.20;98.00;;;;;;5053318;28;20036;-66
2022/04/06 04:12:17;;;;;;;19.23;11.70;;;31.20;97.30;;;;;;5054904;28;20041;-66
2022/04/06 04:14:45;;;;;;;13.80;11.40;;;31.20;96.40;;;;;;5061259;28;20021;-68
2022/04/06 04:17:11;;;;;;;14.27;12.20;;;31.30;97.10;;;;;;5063724;28;20032;-68
2022/04/06 04:19:38;;;;;;;20.00;11.90;;;31.40;96.90;;;;;;5064940;28;20387;-68
2022/04/06 04:22:05;;;;;;;14.77;11.55;;;31.50;95.90;;;;;;5067711;28;20048;-68
2022/04/06 04:24:34;;;;;;;18.38;12.10;;;31.50;95.90;;;;;;5063188;28;20025;-68
2022/04/06 04:27:02;;;;;;;15.45;12.10;;;31.50;96.60;;;;;;5062494;28;20545;-66
2022/04/06 04:29:29;;;;;;;12.20;10.30;;;31.50;97.40;;;;;;5071973;28;20032;-67
2022/04/06 04:31:55;;;;;;;13.45;11.85;;;31.90;95.80;;;;;;5066754;28;20021;-69
2022/04/06 04:34:22;;;;;;;16.05;12.43;;;32.10;94.70;;;;;;5069661;28;20020;-66
2022/04/06 04:36:49;;;;;;;17.30;12.55;;;32.00;95.50;;;;;;5070218;28;20033;-67
2022/04/06 04:39:15;;;;;;;18.02;12.38;;;32.00;95.50;;;;;;5071352;28;20463;-66
2022/04/06 04:41:42;;;;;;;27.88;13.63;;;32.10;95.50;;;;;;5066434;28;20048;-66
2022/04/06 04:44:09;;;;;;;18.00;11.80;;;32.00;95.10;;;;;;5069980;28;20025;-67
2022/04/06 04:46:35;;;;;;;20.83;12.18;;;32.10;94.00;;;;;;5074835;28;20081;-68
2022/04/06 04:49:03;;;;;;;18.60;12.63;;;32.10;94.50;;;;;;5071776;28;20475;-67
2022/04/06 04:51:29;;;;;;;19.52;12.63;;;32.20;93.40;;;;;;5068162;28;20038;-67
2022/04/06 04:53:57;;;;;;;19.27;11.32;;;32.10;94.00;;;;;;5067401;28;20060;-66
2022/04/06 04:56:28;;;;;;;19.05;11.45;;;32.00;93.30;;;;;;5065021;28;20046;-70
2022/04/06 04:58:55;;;;;;;21.00;12.27;;;32.10;93.90;;;;;;5063187;28;20039;-71
2022/04/06 05:01:22;;;;;;;17.05;11.27;;;32.20;93.90;;;;;;5065002;28;20047;-67
2022/04/06 05:03:49;;;;;;;21.67;11.70;;;32.40;93.50;;;;;;5066256;28;20501;-68
2022/04/06 05:06:16;;;;;;;13.20;10.52;;;32.50;93.00;;;;;;5067603;28;20540;-67
2022/04/06 05:08:43;;;;;;;21.55;11.55;;;32.60;92.30;;;;;;5065977;28;20476;-70
2022/04/06 05:11:10;;;;;;;21.02;11.93;;;32.60;91.30;;;;;;5065195;28;20033;-70
2022/04/06 05:13:37;;;;;;;14.30;10.45;;;32.60;91.40;;;;;;5063759;28;20032;-72
2022/04/06 05:16:05;;;;;;;20.95;11.63;;;32.60;90.70;;;;;;5064001;28;20549;-68
2022/04/06 05:18:32;;;;;;;18.20;11.10;;;32.60;91.50;;;;;;5065698;28;20036;-67
2022/04/06 05:20:59;;;;;;;19.58;10.80;;;32.80;91.70;;;;;;5068282;28;20380;-68
2022/04/06 05:23:26;;;;;;;20.08;11.30;;;32.80;90.60;;;;;;5064013;28;20044;-69
2022/04/06 05:25:53;;;;;;;14.85;10.35;;;32.80;90.40;;;;;;5061337;28;20028;-68
2022/04/06 05:28:20;;;;;;;13.48;10.38;;;32.90;87.20;;;;;;5064405;28;20134;-68
2022/04/06 05:30:46;;;;;;;15.10;9.65;;;33.00;87.60;;;;;;5063071;28;20040;-68
2022/04/06 05:33:13;;;;;;;11.38;7.97;;;33.10;88.20;;;;;;5064584;28;20028;-71
2022/04/06 05:35:40;;;;;;;9.70;8.10;;;33.10;82.00;;;;;;5065150;28;20031;-71
2022/04/06 05:38:07;;;;;;;13.70;8.70;;;33.10;82.80;;;;;;5063725;28;20363;-68
2022/04/06 05:40:35;;;;;;;14.23;9.90;;;33.20;84.70;;;;;;5065977;28;20096;-68
2022/04/06 05:43:02;;;;;;;19.17;11.35;;;33.20;82.60;;;;;;5063574;28;20024;-68
2022/04/06 05:45:29;;;;;;;16.55;11.15;;;33.30;79.40;;;;;;5064665;28;20025;-69
2022/04/06 05:47:56;;;;;;;15.13;10.50;;;33.20;84.70;;;;;;5069018;28;20050;-68
2022/04/06 05:50:22;;;;;;;17.02;11.88;;;33.20;84.10;;;;;;5063351;28;20121;-68
2022/04/06 05:52:49;;;;;;;15.90;11.23;;;33.30;84.50;;;;;;5062844;28;20017;-68
2022/04/06 05:55:16;;;;;;;14.68;11.50;;;33.50;84.40;;;;;;5062368;28;20079;-69
2022/04/06 05:57:43;;;;;;;22.55;12.27;;;33.50;83.80;;;;;;5061443;28;20013;-68
2022/04/06 06:00:10;;;;;;;16.73;12.13;;;33.50;86.10;;;;;;5064313;28;20483;-69
2022/04/06 06:02:37;;;;;;;19.83;11.77;;;33.70;85.70;;;;;;5057741;28;20025;-69
2022/04/06 06:05:06;;;;;;;24.60;12.90;;;33.80;84.90;;;;;;5064135;28;20427;-68
2022/04/06 06:07:34;;;;;;;24.58;12.52;;;33.70;83.90;;;;;;5069591;28;20088;-64
2022/04/06 06:10:02;;;;;;;17.73;12.38;;;33.80;84.20;;;;;;5066187;28;20024;-67
2022/04/06 06:12:30;;;;;;;26.08;11.75;;;33.80;81.40;;;;;;5066638;28;20119;-67
2022/04/06 06:14:57;;;;;;;30.13;13.10;;;33.90;82.30;;;;;;5071712;28;20059;-68
2022/04/06 06:17:24;;;;;;;21.10;11.63;;;34.00;83.20;;;;;;5065339;28;20067;-69
2022/04/06 06:19:50;;;;;;;20.60;12.13;;;33.90;81.90;;;;;;5063298;28;20036;-69
2022/04/06 06:22:17;;;;;;;16.80;12.10;;;33.90;82.30;;;;;;5061574;28;20024;-70
2022/04/06 06:24:47;;;;;;;16.13;12.95;;;33.90;80.10;;;;;;5067508;28;20845;-68
2022/04/06 06:27:19;;;;;;;17.13;12.38;;;33.90;78.80;;;;;;5065721;28;20111;-67
2022/04/06 06:29:50;;;;;;;20.05;13.32;;;34.00;83.30;;;;;;5052750;28;20042;-68
2022/04/06 06:32:20;;;;;;;18.23;12.10;;;34.00;81.90;;;;;;5047045;28;20058;-67
2022/04/06 06:34:47;;;;;;;18.55;11.80;;;34.10;80.90;;;;;;5066578;28;20016;-69
2022/04/06 06:37:14;;;;;;;17.88;12.25;;;34.00;77.80;;;;;;5063204;28;20021;-68
2022/04/06 06:39:40;;;;;;;14.40;11.18;;;34.00;81.30;;;;;;5068748;28;20109;-68
2022/04/06 06:42:07;;;;;;;19.90;12.63;;;34.00;80.60;;;;;;5066787;28;20027;-69
2022/04/06 06:44:34;;;;;;;22.00;12.10;;;34.10;81.10;;;;;;5068947;28;20027;-68
2022/04/06 06:47:01;;;;;;;17.77;11.60;;;34.10;81.80;;;;;;5066418;28;20123;-67
2022/04/06 06:49:28;;;;;;;16.90;11.30;;;34.10;78.50;;;;;;5062166;28;20070;-69
2022/04/06 06:51:57;;;;;;;15.32;11.05;;;34.20;78.60;;;;;;5064504;28;20056;-70
2022/04/06 06:54:26;;;;;;;14.70;12.05;;;34.00;78.70;;;;;;5061835;28;20024;-69
2022/04/06 06:56:53;;;;;;;15.50;12.13;;;34.00;77.90;;;;;;5064139;28;20035;-69
2022/04/06 06:59:20;;;;;;;17.63;13.32;;;34.10;77.10;;;;;;5064393;28;20095;-69
2022/04/06 07:01:46;;;;;;;18.50;12.63;;;33.90;76.20;;;;;;5065419;28;20387;-70
2022/04/06 07:04:13;;;;;;;21.83;11.90;;;33.80;77.80;;;;;;5068127;28;20448;-68
2022/04/06 07:06:40;;;;;;;19.17;13.02;;;33.60;79.40;;;;;;5073618;28;20024;-68
2022/04/06 07:09:07;;;;;;;22.75;13.27;;;33.60;79.80;;;;;;5069669;28;20028;-69
2022/04/06 07:11:33;;;;;;;17.88;13.02;;;33.50;76.20;;;;;;5064606;28;20021;-70
2022/04/06 07:14:00;;;;;;;15.20;12.23;;;33.40;75.70;;;;;;5066430;28;20016;-69
2022/04/06 07:16:27;;;;;;;20.27;14.13;;;33.30;78.10;;;;;;5066758;28;20060;-70
2022/04/06 07:18:53;;;;;;;17.85;12.80;;;33.30;79.60;;;;;;5064499;28;20510;-70
2022/04/06 07:21:20;;;;;;;22.67;16.42;;;33.30;80.00;;;;;;5065117;28;20394;-69
2022/04/06 07:23:47;;;;;;;26.83;16.17;;;33.30;81.80;;;;;;5065974;28;20027;-71
2022/04/06 07:26:17;;;;;;;32.15;16.73;;;33.30;82.00;;;;;;5065228;28;20037;-71
2022/04/06 07:28:45;;;;;;;30.77;15.25;;;33.40;79.90;;;;;;5069702;28;20016;-71
2022/04/06 07:31:15;;;;;;;18.67;13.77;;;33.40;78.60;;;;;;5067536;28;20031;-70
2022/04/06 07:33:41;;;;;;;17.33;14.52;;;33.50;79.30;;;;;;5068812;28;20031;-70
2022/04/06 07:36:08;;;;;;;26.33;17.90;;;33.60;79.70;;;;;;5064971;28;20108;-70
2022/04/06 07:38:35;;;;;;;26.88;17.25;;;33.60;79.80;;;;;;5069339;28;20447;-70
2022/04/06 07:41:02;;;;;;;22.77;15.52;;;33.60;81.10;;;;;;5066165;28;20084;-72
2022/04/06 07:43:28;;;;;;;28.15;17.75;;;33.60;81.50;;;;;;5067320;28;20087;-68
2022/04/06 07:45:57;;;;;;;25.42;16.55;;;33.70;80.30;;;;;;5068855;28;20070;-70
2022/04/06 07:48:26;;;;;;;20.63;14.82;;;33.70;82.50;;;;;;5072730;28;20017;-69
2022/04/06 07:50:54;;;;;;;22.50;15.00;;;33.70;82.20;;;;;;5069988;28;20391;-70
2022/04/06 07:53:21;;;;;;;23.58;16.13;;;33.70;81.00;;;;;;5066393;28;20028;-69
2022/04/06 07:55:49;;;;;;;19.92;16.33;;;33.60;80.50;;;;;;5066240;28;20513;-75
2022/04/06 07:58:18;;;;;;;27.65;18.25;;;33.60;79.60;;;;;;5067717;28;20290;-67
2022/04/06 08:00:48;;;;;;;23.25;17.95;;;33.40;79.00;;;;;;5068022;28;20466;-73
2022/04/06 08:03:14;;;;;;;21.67;18.58;;;33.40;81.00;;;;;;5065100;28;20021;-68
2022/04/06 08:05:41;;;;;;;28.10;18.35;;;33.40;82.10;;;;;;5065675;28;20023;-68
2022/04/06 08:08:08;;;;;;;23.08;17.25;;;33.40;80.80;;;;;;5068527;28;20017;-67
2022/04/06 08:10:35;;;;;;;26.85;18.80;;;33.30;83.00;;;;;;5066883;28;20024;-69
2022/04/06 08:13:01;;;;;;;31.17;19.88;;;33.30;83.90;;;;;;5065301;28;20024;-66
2022/04/06 08:15:28;;;;;;;28.15;19.80;;;33.40;84.70;;;;;;5067417;28;20052;-71
2022/04/06 08:17:55;;;;;;;33.58;23.65;;;33.40;85.90;;;;;;5062831;28;20040;-67
2022/04/06 08:20:24;;;;;;;34.17;24.58;;;33.40;86.10;;;;;;5067083;28;20040;-67
2022/04/06 08:22:51;;;;;;;39.15;26.10;;;33.40;87.30;;;;;;5067873;28;20035;-68
2022/04/06 08:25:18;;;;;;;34.85;23.73;;;33.40;86.10;;;;;;5068122;28;20021;-67
2022/04/06 08:27:46;;;;;;;28.17;23.08;;;33.40;86.30;;;;;;5067271;28;20021;-68
2022/04/06 08:30:13;;;;;;;34.75;24.58;;;33.40;85.40;;;;;;5067680;28;20033;-67
2022/04/06 08:32:40;;;;;;;31.17;23.05;;;33.50;83.90;;;;;;5075878;28;20031;-67
2022/04/06 08:35:08;;;;;;;31.08;23.98;;;33.50;82.60;;;;;;5075267;28;20032;-68
2022/04/06 08:37:37;;;;;;;29.65;22.70;;;33.50;83.40;;;;;;5071400;28;20395;-67
2022/04/06 08:40:06;;;;;;;27.63;21.98;;;33.60;83.30;;;;;;5063655;28;20032;-66
2022/04/06 08:42:35;;;;;;;31.48;25.00;;;33.60;82.10;;;;;;5063381;28;20104;-66
2022/04/06 08:45:01;;;;;;;40.13;28.80;;;33.70;82.50;;;;;;5065267;28;20013;-68
2022/04/06 08:47:32;;;;;;;36.17;26.38;;;33.60;82.00;;;;;;5064400;28;20031;-68
2022/04/06 08:50:03;;;;;;;30.35;22.67;;;33.60;81.50;;;;;;5064328;28;20595;-70
2022/04/06 08:52:33;;;;;;;33.33;23.20;;;33.50;81.70;;;;;;5062686;28;20044;-70
2022/04/06 08:55:00;;;;;;;32.75;23.52;;;33.60;82.00;;;;;;5065478;28;20028;-72
2022/04/06 08:57:28;;;;;;;26.67;21.60;;;33.50;81.90;;;;;;5066917;28;20060;-71
2022/04/06 08:59:55;;;;;;;35.28;24.27;;;33.50;82.20;;;;;;5066475;28;20056;-68
2022/04/06 09:02:23;;;;;;;33.42;23.38;;;33.50;81.30;;;;;;5097895;22;20044;-72
2022/04/06 09:04:53;;;;;;;28.73;22.83;;;33.50;81.70;;;;;;5073605;28;20103;-71
2022/04/06 09:07:21;;;;;;;29.30;24.23;;;33.50;81.40;;;;;;5075016;28;20514;-71
2022/04/06 09:09:52;;;;;;;31.45;24.65;;;33.50;82.60;;;;;;5075503;28;20122;-71
2022/04/06 09:12:20;;;;;;;30.92;23.63;;;33.50;82.90;;;;;;5075311;28;20025;-69
2022/04/06 09:15:02;;;;;;;35.45;25.90;;;33.50;83.50;;;;;;5074637;28;20024;-72
2022/04/06 09:17:29;;;;;;;34.72;24.38;;;33.50;82.20;;;;;;5073617;28;20058;-72
2022/04/06 09:19:59;;;;;;;29.00;24.77;;;33.50;83.20;;;;;;5072112;28;20387;-74
2022/04/06 09:22:28;;;;;;;33.17;24.77;;;33.40;83.70;;;;;;5067646;28;20447;-71
2022/04/06 09:25:00;;;;;;;29.73;23.02;;;33.40;84.50;;;;;;5074752;28;20032;-73
2022/04/06 09:27:36;;;;;;;36.58;26.73;;;33.40;84.70;;;;;;5074843;28;20126;-71
2022/04/06 09:30:05;;;;;;;45.45;33.70;;;33.30;85.70;;;;;;5073551;28;20066;-71
2022/04/06 09:32:32;;;;;;;48.40;30.48;;;33.30;85.40;;;;;;5074168;28;20033;-71
2022/04/06 09:34:58;;;;;;;38.00;27.90;;;33.20;86.10;;;;;;5074296;28;20020;-72
2022/04/06 09:37:26;;;;;;;48.05;32.38;;;33.20;85.80;;;;;;5074106;28;20077;-70
2022/04/06 09:39:53;;;;;;;47.22;31.52;;;33.10;85.20;;;;;;5073973;28;20021;-72
2022/04/06 09:42:22;;;;;;;98.47;40.78;;;33.10;84.60;;;;;;5074387;28;20017;-70
2022/04/06 09:47:38;;;;;;;56.67;34.78;;;33.00;84.70;;;;;;5099601;22;20048;-71
2022/04/06 09:50:12;;;;;;;53.85;33.63;;;33.00;86.20;;;;;;5073872;28;20086;-70
2022/04/06 09:52:39;;;;;;;52.90;35.83;;;33.00;86.70;;;;;;5069063;28;20031;-69
2022/04/06 09:55:09;;;;;;;53.03;38.50;;;33.00;86.80;;;;;;5073693;28;20021;-69
2022/04/06 09:57:51;;;;;;;51.95;35.72;;;33.00;87.00;;;;;;5065022;28;20025;-70
2022/04/06 10:00:21;;;;;;;41.65;28.35;;;32.90;87.40;;;;;;5054459;28;20051;-69
2022/04/06 10:02:49;;;;;;;61.50;42.47;;;32.90;87.40;;;;;;5070782;28;20519;-71
2022/04/06 10:05:19;;;;;;;45.65;30.38;;;32.90;87.80;;;;;;5073785;28;20039;-70
2022/04/06 10:07:48;;;;;;;42.75;29.73;;;32.90;87.80;;;;;;5074155;28;20368;-71
2022/04/06 10:10:15;;;;;;;35.47;24.45;;;32.80;88.10;;;;;;5074052;28;20487;-71
2022/04/06 10:12:42;;;;;;;33.75;25.40;;;32.80;88.00;;;;;;5074448;28;20440;-70
2022/04/06 10:15:09;;;;;;;25.20;21.35;;;32.80;88.60;;;;;;5073884;28;20028;-69
2022/04/06 10:17:36;;;;;;;28.98;20.67;;;32.70;88.70;;;;;;5077747;28;20025;-70
2022/04/06 10:20:22;;;;;;;36.45;19.08;;;32.60;88.60;;;;;;5070404;28;20029;-69
2022/04/06 10:23:00;;;;;;;23.85;18.42;;;32.60;88.00;;;;;;5072929;28;20032;-69
2022/04/06 10:25:40;;;;;;;32.83;20.25;;;32.50;88.40;;;;;;5075689;28;20052;-71
2022/04/06 10:28:11;;;;;;;32.40;22.45;;;32.50;89.60;;;;;;5071027;28;20020;-68
2022/04/06 10:30:38;;;;;;;40.50;25.70;;;32.50;90.10;;;;;;5073601;28;20017;-66
2022/04/06 10:33:25;;;;;;;50.80;33.40;;;32.40;90.20;;;;;;5077169;28;20033;-68
2022/04/06 10:36:23;;;;;;;41.30;31.00;;;32.30;90.20;;;;;;5076934;28;20032;-67
2022/04/06 10:39:10;;;;;;;46.30;33.67;;;32.00;89.20;;;;;;5072314;28;20078;-68
2022/04/06 10:41:41;;;;;;;43.55;33.85;;;31.70;91.10;;;;;;5079413;28;20107;-70
2022/04/06 10:44:28;;;;;;;47.70;35.40;;;31.40;90.30;;;;;;5085924;22;20060;-69
2022/04/06 10:47:07;;;;;;;52.35;38.05;;;31.20;90.00;;;;;;5036164;28;20029;-69
2022/04/06 10:49:34;;;;;;;43.85;32.28;;;31.00;90.90;;;;;;5032665;28;20400;-68
2022/04/06 10:52:18;;;;;;;42.83;31.80;;;30.90;91.80;;;;;;5034182;28;20040;-68
2022/04/06 10:54:45;;;;;;;44.15;33.75;;;30.80;92.30;;;;;;5033366;28;20026;-70
2022/04/06 10:57:12;;;;;;;54.67;37.28;;;30.80;92.50;;;;;;5037122;28;20080;-67
2022/04/06 10:59:39;;;;;;;39.78;32.55;;;30.80;92.80;;;;;;5035103;28;20030;-69
2022/04/06 11:02:28;;;;;;;48.53;34.25;;;30.70;93.60;;;;;;5028992;28;20029;-68
2022/04/06 11:04:54;;;;;;;37.85;31.50;;;30.70;93.20;;;;;;5034323;28;20045;-67
2022/04/06 11:10:22;;;;;;;37.67;25.77;;;30.50;92.30;;;;;;5032709;28;20034;-68
2022/04/06 11:13:10;;;;;;;15.88;13.23;;;30.40;91.90;;;;;;5036307;28;20480;-67
2022/04/06 11:15:41;;;;;;;29.33;26.23;;;30.20;90.70;;;;;;5035942;28;20450;-69
2022/04/06 11:18:36;;;;;;;22.20;17.30;;;29.90;90.10;;;;;;5035342;28;20022;-67
2022/04/06 11:21:04;;;;;;;41.22;31.92;;;29.70;89.60;;;;;;5035281;28;20083;-67
2022/04/06 11:23:31;;;;;;;31.98;24.33;;;29.60;92.40;;;;;;5036524;28;20071;-66
2022/04/06 11:26:00;;;;;;;21.25;17.02;;;29.50;93.60;;;;;;5036147;28;20014;-68
2022/04/06 11:28:28;;;;;;;23.35;16.52;;;29.20;94.20;;;;;;5035373;28;20037;-68
2022/04/06 11:30:56;;;;;;;16.08;13.45;;;28.90;95.10;;;;;;5034924;28;20029;-69
2022/04/06 11:33:23;;;;;;;15.55;12.48;;;28.40;95.50;;;;;;5035556;28;20096;-69
2022/04/06 11:35:52;;;;;;;17.98;13.55;;;28.00;96.50;;;;;;5017399;28;20025;-70
2022/04/06 11:38:19;;;;;;;16.63;12.68;;;27.70;97.50;;;;;;5033235;28;20021;-67
2022/04/06 11:40:46;;;;;;;41.92;31.13;;;27.80;98.80;;;;;;5030197;28;20438;-66
2022/04/06 11:43:12;;;;;;;38.17;25.80;;;28.00;98.80;;;;;;5018757;28;20021;-68
2022/04/06 11:45:44;;;;;;;34.10;21.23;;;28.00;99.20;;;;;;5026977;28;20105;-66
2022/04/06 11:48:15;;;;;;;55.65;31.98;;;27.90;99.90;;;;;;5025025;28;20439;-65
2022/04/06 11:50:45;;;;;;;82.03;58.28;;;27.90;99.90;;;;;;5023506;28;20413;-66
2022/04/06 11:53:18;;;;;;;48.47;34.13;;;27.90;99.90;;;;;;5022558;28;20427;-66
2022/04/06 11:55:47;;;;;;;35.03;26.23;;;28.10;99.90;;;;;;5021957;28;20447;-67
2022/04/06 11:58:34;;;;;;;49.38;41.35;;;28.30;99.90;;;;;;5025967;28;20026;-67
2022/04/06 12:01:05;;;;;;;28.10;21.05;;;28.40;99.90;;;;;;5025190;28;20024;-66
2022/04/06 12:03:33;;;;;;;27.60;19.95;;;28.40;99.90;;;;;;5024375;28;20044;-64
2022/04/06 12:06:01;;;;;;;28.80;19.70;;;28.50;99.90;;;;;;5022539;28;20030;-65
2022/04/06 12:08:28;;;;;;;27.58;19.05;;;28.50;99.90;;;;;;5016213;28;20045;-66
2022/04/06 12:10:56;;;;;;;26.10;18.30;;;28.60;99.90;;;;;;5016257;28;20022;-65
2022/04/06 12:13:25;;;;;;;25.90;18.35;;;28.70;99.90;;;;;;5017144;28;20469;-65
2022/04/06 12:15:54;;;;;;;23.98;17.90;;;28.70;99.90;;;;;;5013113;28;20487;-67
2022/04/06 12:18:23;;;;;;;23.27;18.75;;;28.70;99.90;;;;;;5016694;28;20029;-66
2022/04/06 12:20:51;;;;;;;27.35;21.48;;;28.70;99.90;;;;;;5014453;28;20130;-65
2022/04/06 12:23:19;;;;;;;31.02;20.52;;;28.70;99.90;;;;;;5019499;28;20045;-69
2022/04/06 12:25:47;;;;;;;28.25;21.30;;;28.80;99.90;;;;;;5025887;28;20030;-63
2022/04/06 12:28:17;;;;;;;27.77;21.38;;;28.80;99.90;;;;;;5025266;28;20025;-65
2022/04/06 12:30:55;;;;;;;33.88;24.00;;;29.00;99.90;;;;;;5019743;28;20456;-65
2022/04/06 12:33:43;;;;;;;38.00;27.42;;;29.00;99.90;;;;;;5025225;28;20025;-67
2022/04/06 12:36:21;;;;;;;53.95;40.47;;;29.10;99.90;;;;;;5026857;28;20060;-68
2022/04/06 12:39:08;;;;;;;91.05;69.18;;;29.10;99.90;;;;;;5017524;28;20067;-65
2022/04/06 12:41:58;;;;;;;128.20;97.43;;;29.20;99.90;;;;;;5024755;28;20017;-64
2022/04/06 12:44:27;;;;;;;83.75;65.45;;;29.10;99.90;;;;;;5024994;28;20054;-64